sensor_id;sensor_type;location;lat;lon;timestamp;P1;durP1;ratioP1;P2;durP2;ratioP2
5622;SDS011;2833;50.432;10.706;2023-06-22T00:02:12;9.60;;;8.50;;
5622;SDS011;2833;50.432;10.706;2023-06-22T00:04:37;12.10;;;9.00;;
5622;SDS011;2833;50.432;10.706;2023-06-22T00:07:02;11.70;;;9.10;;
5622;SDS011;2833;50.432;10.706;2023-06-22T00:09:27;11.33;;;9.17;;
5622;SDS011;2833;50.432;10.706;2023-06-22T00:11:53;9.90;;;8.90;;
5622;SDS011;2833;50.432;10.706;2023-06-22T00:14:18;11.70;;;8.73;;
5622;SDS011;2833;50.432;10.706;2023-06-22T00:16:43;12.20;;;8.83;;
5622;SDS011;2833;50.432;10.706;2023-06-22T00:19:08;17.70;;;9.40;;
5622;SDS011;2833;50.432;10.706;2023-06-22T00:21:35;10.90;;;8.47;;
5622;SDS011;2833;50.432;10.706;2023-06-22T00:24:00;10.50;;;8.87;;
5622;SDS011;2833;50.432;10.706;2023-06-22T00:26:26;10.17;;;8.57;;
5622;SDS011;2833;50.432;10.706;2023-06-22T00:28:51;10.77;;;8.80;;
5622;SDS011;2833;50.432;10.706;2023-06-22T00:31:16;11.73;;;8.90;;
5622;SDS011;2833;50.432;10.706;2023-06-22T00:33:41;11.53;;;8.67;;
5622;SDS011;2833;50.432;10.706;2023-06-22T00:36:07;11.37;;;9.50;;
5622;SDS011;2833;50.432;10.706;2023-06-22T00:38:32;12.13;;;9.27;;
5622;SDS011;2833;50.432;10.706;2023-06-22T00:40:58;10.37;;;9.00;;
5622;SDS011;2833;50.432;10.706;2023-06-22T00:43:23;10.67;;;9.37;;
5622;SDS011;2833;50.432;10.706;2023-06-22T00:45:48;10.93;;;9.10;;
5622;SDS011;2833;50.432;10.706;2023-06-22T00:48:13;15.03;;;8.83;;
5622;SDS011;2833;50.432;10.706;2023-06-22T00:50:39;16.43;;;8.90;;
5622;SDS011;2833;50.432;10.706;2023-06-22T00:53:05;15.00;;;9.43;;
5622;SDS011;2833;50.432;10.706;2023-06-22T00:55:35;11.80;;;8.90;;
5622;SDS011;2833;50.432;10.706;2023-06-22T00:58:03;10.43;;;9.20;;
5622;SDS011;2833;50.432;10.706;2023-06-22T01:00:33;11.80;;;8.90;;
5622;SDS011;2833;50.432;10.706;2023-06-22T01:02:58;10.50;;;9.23;;
5622;SDS011;2833;50.432;10.706;2023-06-22T01:05:23;18.23;;;9.37;;
5622;SDS011;2833;50.432;10.706;2023-06-22T01:13:08;12.67;;;8.50;;
5622;SDS011;2833;50.432;10.706;2023-06-22T01:15:39;11.47;;;9.53;;
5622;SDS011;2833;50.432;10.706;2023-06-22T01:18:05;11.80;;;9.83;;
5622;SDS011;2833;50.432;10.706;2023-06-22T01:20:30;11.57;;;9.30;;
5622;SDS011;2833;50.432;10.706;2023-06-22T01:25:31;12.43;;;9.53;;
5622;SDS011;2833;50.432;10.706;2023-06-22T01:28:05;13.53;;;9.37;;
5622;SDS011;2833;50.432;10.706;2023-06-22T01:30:40;14.87;;;8.93;;
5622;SDS011;2833;50.432;10.706;2023-06-22T01:33:06;13.67;;;9.47;;
5622;SDS011;2833;50.432;10.706;2023-06-22T01:35:31;13.57;;;9.10;;
5622;SDS011;2833;50.432;10.706;2023-06-22T01:37:57;10.87;;;9.20;;
5622;SDS011;2833;50.432;10.706;2023-06-22T01:40:22;11.97;;;9.97;;
5622;SDS011;2833;50.432;10.706;2023-06-22T01:42:48;13.20;;;10.30;;
5622;SDS011;2833;50.432;10.706;2023-06-22T01:45:14;12.10;;;9.27;;
5622;SDS011;2833;50.432;10.706;2023-06-22T01:47:40;10.60;;;9.17;;
5622;SDS011;2833;50.432;10.706;2023-06-22T01:50:06;11.60;;;8.90;;
5622;SDS011;2833;50.432;10.706;2023-06-22T01:52:31;12.93;;;9.33;;
5622;SDS011;2833;50.432;10.706;2023-06-22T01:54:58;11.23;;;9.30;;
5622;SDS011;2833;50.432;10.706;2023-06-22T01:57:24;14.97;;;10.70;;
5622;SDS011;2833;50.432;10.706;2023-06-22T02:00:07;14.60;;;9.40;;
5622;SDS011;2833;50.432;10.706;2023-06-22T02:03:10;14.10;;;10.57;;
5622;SDS011;2833;50.432;10.706;2023-06-22T02:05:28;13.97;;;9.40;;
5622;SDS011;2833;50.432;10.706;2023-06-22T02:08:06;11.00;;;9.10;;
5622;SDS011;2833;50.432;10.706;2023-06-22T02:10:32;12.00;;;9.67;;
5622;SDS011;2833;50.432;10.706;2023-06-22T02:12:57;11.80;;;9.73;;
5622;SDS011;2833;50.432;10.706;2023-06-22T02:15:23;12.20;;;9.70;;
5622;SDS011;2833;50.432;10.706;2023-06-22T02:17:49;13.00;;;9.53;;
5622;SDS011;2833;50.432;10.706;2023-06-22T02:20:15;13.70;;;8.60;;
5622;SDS011;2833;50.432;10.706;2023-06-22T02:22:40;11.40;;;9.30;;
5622;SDS011;2833;50.432;10.706;2023-06-22T02:25:05;16.77;;;10.27;;
5622;SDS011;2833;50.432;10.706;2023-06-22T02:27:30;12.17;;;9.80;;
5622;SDS011;2833;50.432;10.706;2023-06-22T02:29:56;13.30;;;8.93;;
5622;SDS011;2833;50.432;10.706;2023-06-22T02:32:21;13.03;;;9.30;;
5622;SDS011;2833;50.432;10.706;2023-06-22T02:34:47;12.53;;;9.77;;
5622;SDS011;2833;50.432;10.706;2023-06-22T02:37:12;13.40;;;9.70;;
5622;SDS011;2833;50.432;10.706;2023-06-22T02:39:39;10.50;;;8.90;;
5622;SDS011;2833;50.432;10.706;2023-06-22T02:42:05;14.63;;;10.07;;
5622;SDS011;2833;50.432;10.706;2023-06-22T02:44:30;11.37;;;9.27;;
5622;SDS011;2833;50.432;10.706;2023-06-22T02:46:56;13.97;;;10.00;;
5622;SDS011;2833;50.432;10.706;2023-06-22T02:49:21;20.10;;;9.93;;
5622;SDS011;2833;50.432;10.706;2023-06-22T02:51:47;11.33;;;9.00;;
5622;SDS011;2833;50.432;10.706;2023-06-22T02:54:12;11.63;;;9.13;;
5622;SDS011;2833;50.432;10.706;2023-06-22T02:56:37;12.60;;;8.83;;
5622;SDS011;2833;50.432;10.706;2023-06-22T02:59:03;11.67;;;8.67;;
5622;SDS011;2833;50.432;10.706;2023-06-22T03:01:28;10.40;;;8.60;;
5622;SDS011;2833;50.432;10.706;2023-06-22T03:03:55;12.90;;;9.43;;
5622;SDS011;2833;50.432;10.706;2023-06-22T03:06:20;10.20;;;8.57;;
5622;SDS011;2833;50.432;10.706;2023-06-22T03:08:48;12.47;;;9.23;;
5622;SDS011;2833;50.432;10.706;2023-06-22T03:11:13;12.80;;;9.90;;
5622;SDS011;2833;50.432;10.706;2023-06-22T03:13:39;11.60;;;8.70;;
5622;SDS011;2833;50.432;10.706;2023-06-22T03:16:04;13.00;;;9.97;;
5622;SDS011;2833;50.432;10.706;2023-06-22T03:18:29;11.40;;;9.30;;
5622;SDS011;2833;50.432;10.706;2023-06-22T03:20:54;10.60;;;8.80;;
5622;SDS011;2833;50.432;10.706;2023-06-22T03:23:19;12.87;;;9.40;;
5622;SDS011;2833;50.432;10.706;2023-06-22T03:25:45;11.67;;;9.40;;
5622;SDS011;2833;50.432;10.706;2023-06-22T03:28:10;10.60;;;9.03;;
5622;SDS011;2833;50.432;10.706;2023-06-22T03:30:35;12.27;;;9.37;;
5622;SDS011;2833;50.432;10.706;2023-06-22T03:33:00;13.20;;;10.33;;
5622;SDS011;2833;50.432;10.706;2023-06-22T03:35:26;10.67;;;9.23;;
5622;SDS011;2833;50.432;10.706;2023-06-22T03:37:51;12.60;;;10.53;;
5622;SDS011;2833;50.432;10.706;2023-06-22T03:40:17;11.50;;;8.63;;
5622;SDS011;2833;50.432;10.706;2023-06-22T03:42:42;12.13;;;9.60;;
5622;SDS011;2833;50.432;10.706;2023-06-22T03:45:07;13.77;;;9.50;;
5622;SDS011;2833;50.432;10.706;2023-06-22T03:47:33;14.20;;;10.53;;
5622;SDS011;2833;50.432;10.706;2023-06-22T03:49:58;12.60;;;9.80;;
5622;SDS011;2833;50.432;10.706;2023-06-22T03:52:24;12.83;;;10.27;;
5622;SDS011;2833;50.432;10.706;2023-06-22T03:54:50;13.97;;;11.17;;
5622;SDS011;2833;50.432;10.706;2023-06-22T03:57:15;18.50;;;11.47;;
5622;SDS011;2833;50.432;10.706;2023-06-22T03:59:41;12.67;;;10.43;;
5622;SDS011;2833;50.432;10.706;2023-06-22T04:02:06;15.83;;;11.97;;
5622;SDS011;2833;50.432;10.706;2023-06-22T04:04:31;16.60;;;11.37;;
5622;SDS011;2833;50.432;10.706;2023-06-22T04:06:57;15.23;;;10.37;;
5622;SDS011;2833;50.432;10.706;2023-06-22T04:09:22;14.27;;;10.30;;
5622;SDS011;2833;50.432;10.706;2023-06-22T04:11:47;15.40;;;10.83;;
5622;SDS011;2833;50.432;10.706;2023-06-22T04:14:12;13.03;;;10.13;;
5622;SDS011;2833;50.432;10.706;2023-06-22T04:16:38;15.83;;;11.57;;
5622;SDS011;2833;50.432;10.706;2023-06-22T04:19:03;14.93;;;11.10;;
5622;SDS011;2833;50.432;10.706;2023-06-22T04:21:28;17.23;;;11.40;;
5622;SDS011;2833;50.432;10.706;2023-06-22T04:23:54;14.10;;;11.20;;
5622;SDS011;2833;50.432;10.706;2023-06-22T04:26:19;13.70;;;10.43;;
5622;SDS011;2833;50.432;10.706;2023-06-22T04:28:46;15.10;;;11.33;;
5622;SDS011;2833;50.432;10.706;2023-06-22T04:31:16;18.67;;;11.30;;
5622;SDS011;2833;50.432;10.706;2023-06-22T04:33:41;15.43;;;10.53;;
5622;SDS011;2833;50.432;10.706;2023-06-22T04:36:07;13.77;;;10.80;;
5622;SDS011;2833;50.432;10.706;2023-06-22T04:38:32;13.50;;;10.80;;
5622;SDS011;2833;50.432;10.706;2023-06-22T04:41:00;14.90;;;11.13;;
5622;SDS011;2833;50.432;10.706;2023-06-22T04:43:27;17.27;;;11.53;;
5622;SDS011;2833;50.432;10.706;2023-06-22T04:45:55;15.00;;;10.60;;
5622;SDS011;2833;50.432;10.706;2023-06-22T04:48:20;15.83;;;10.80;;
5622;SDS011;2833;50.432;10.706;2023-06-22T04:50:46;16.40;;;11.80;;
5622;SDS011;2833;50.432;10.706;2023-06-22T04:53:11;16.17;;;11.07;;
5622;SDS011;2833;50.432;10.706;2023-06-22T04:55:37;14.57;;;11.07;;
5622;SDS011;2833;50.432;10.706;2023-06-22T04:58:06;13.90;;;11.07;;
5622;SDS011;2833;50.432;10.706;2023-06-22T05:00:31;15.00;;;11.07;;
5622;SDS011;2833;50.432;10.706;2023-06-22T05:02:56;15.07;;;11.00;;
5622;SDS011;2833;50.432;10.706;2023-06-22T05:05:23;17.87;;;12.13;;
5622;SDS011;2833;50.432;10.706;2023-06-22T05:07:49;17.10;;;12.20;;
5622;SDS011;2833;50.432;10.706;2023-06-22T05:10:17;14.30;;;10.80;;
5622;SDS011;2833;50.432;10.706;2023-06-22T05:12:43;14.50;;;11.30;;
5622;SDS011;2833;50.432;10.706;2023-06-22T05:15:08;17.50;;;11.83;;
5622;SDS011;2833;50.432;10.706;2023-06-22T05:17:33;15.30;;;11.97;;
5622;SDS011;2833;50.432;10.706;2023-06-22T05:19:59;13.33;;;11.10;;
5622;SDS011;2833;50.432;10.706;2023-06-22T05:22:24;18.13;;;11.50;;
5622;SDS011;2833;50.432;10.706;2023-06-22T05:24:49;15.50;;;11.70;;
5622;SDS011;2833;50.432;10.706;2023-06-22T05:27:14;17.97;;;11.53;;
5622;SDS011;2833;50.432;10.706;2023-06-22T05:29:40;13.87;;;11.00;;
5622;SDS011;2833;50.432;10.706;2023-06-22T05:32:05;15.73;;;11.77;;
5622;SDS011;2833;50.432;10.706;2023-06-22T05:34:30;16.40;;;11.50;;
5622;SDS011;2833;50.432;10.706;2023-06-22T05:36:56;16.10;;;11.70;;
5622;SDS011;2833;50.432;10.706;2023-06-22T05:39:23;19.70;;;12.77;;
5622;SDS011;2833;50.432;10.706;2023-06-22T05:41:49;16.97;;;12.20;;
5622;SDS011;2833;50.432;10.706;2023-06-22T05:44:14;14.37;;;11.60;;
5622;SDS011;2833;50.432;10.706;2023-06-22T05:46:40;21.83;;;11.77;;
5622;SDS011;2833;50.432;10.706;2023-06-22T05:49:09;15.13;;;11.60;;
5622;SDS011;2833;50.432;10.706;2023-06-22T05:51:34;17.07;;;11.47;;
5622;SDS011;2833;50.432;10.706;2023-06-22T05:53:59;28.53;;;11.80;;
5622;SDS011;2833;50.432;10.706;2023-06-22T05:56:24;19.13;;;12.13;;
5622;SDS011;2833;50.432;10.706;2023-06-22T05:58:50;16.77;;;12.33;;
5622;SDS011;2833;50.432;10.706;2023-06-22T06:01:15;15.50;;;11.50;;
5622;SDS011;2833;50.432;10.706;2023-06-22T06:03:40;16.10;;;11.70;;
5622;SDS011;2833;50.432;10.706;2023-06-22T06:06:06;18.70;;;12.40;;
5622;SDS011;2833;50.432;10.706;2023-06-22T06:08:31;16.73;;;12.43;;
5622;SDS011;2833;50.432;10.706;2023-06-22T06:10:56;17.07;;;12.77;;
5622;SDS011;2833;50.432;10.706;2023-06-22T06:13:22;20.60;;;12.93;;
5622;SDS011;2833;50.432;10.706;2023-06-22T06:15:47;19.07;;;12.20;;
5622;SDS011;2833;50.432;10.706;2023-06-22T06:18:13;14.23;;;11.50;;
5622;SDS011;2833;50.432;10.706;2023-06-22T06:20:38;17.47;;;11.80;;
5622;SDS011;2833;50.432;10.706;2023-06-22T06:23:03;16.50;;;11.70;;
5622;SDS011;2833;50.432;10.706;2023-06-22T06:25:28;17.60;;;11.70;;
5622;SDS011;2833;50.432;10.706;2023-06-22T06:27:53;16.20;;;11.70;;
5622;SDS011;2833;50.432;10.706;2023-06-22T06:30:22;15.87;;;11.20;;
5622;SDS011;2833;50.432;10.706;2023-06-22T06:32:47;17.87;;;11.93;;
5622;SDS011;2833;50.432;10.706;2023-06-22T06:35:13;32.33;;;12.13;;
5622;SDS011;2833;50.432;10.706;2023-06-22T06:37:39;15.87;;;11.57;;
5622;SDS011;2833;50.432;10.706;2023-06-22T06:40:05;13.20;;;10.30;;
5622;SDS011;2833;50.432;10.706;2023-06-22T06:42:35;17.27;;;11.10;;
5622;SDS011;2833;50.432;10.706;2023-06-22T06:45:00;13.33;;;10.13;;
5622;SDS011;2833;50.432;10.706;2023-06-22T06:47:25;13.50;;;9.50;;
5622;SDS011;2833;50.432;10.706;2023-06-22T06:49:50;15.80;;;9.70;;
5622;SDS011;2833;50.432;10.706;2023-06-22T06:52:15;12.57;;;9.50;;
5622;SDS011;2833;50.432;10.706;2023-06-22T06:54:41;13.97;;;10.17;;
5622;SDS011;2833;50.432;10.706;2023-06-22T06:57:07;17.07;;;10.07;;
5622;SDS011;2833;50.432;10.706;2023-06-22T06:59:32;13.10;;;9.63;;
5622;SDS011;2833;50.432;10.706;2023-06-22T07:01:57;13.53;;;9.73;;
5622;SDS011;2833;50.432;10.706;2023-06-22T07:04:22;11.60;;;9.70;;
5622;SDS011;2833;50.432;10.706;2023-06-22T07:06:47;12.10;;;8.77;;
5622;SDS011;2833;50.432;10.706;2023-06-22T07:09:13;11.00;;;8.00;;
5622;SDS011;2833;50.432;10.706;2023-06-22T07:11:38;9.60;;;7.57;;
5622;SDS011;2833;50.432;10.706;2023-06-22T07:14:03;10.13;;;7.63;;
5622;SDS011;2833;50.432;10.706;2023-06-22T07:16:28;11.53;;;8.10;;
5622;SDS011;2833;50.432;10.706;2023-06-22T07:18:55;12.33;;;7.97;;
5622;SDS011;2833;50.432;10.706;2023-06-22T07:21:20;11.03;;;8.40;;
5622;SDS011;2833;50.432;10.706;2023-06-22T07:23:45;9.80;;;7.97;;
5622;SDS011;2833;50.432;10.706;2023-06-22T07:26:11;12.03;;;7.77;;
5622;SDS011;2833;50.432;10.706;2023-06-22T07:28:37;9.80;;;7.40;;
5622;SDS011;2833;50.432;10.706;2023-06-22T07:31:03;10.90;;;8.00;;
5622;SDS011;2833;50.432;10.706;2023-06-22T07:33:29;12.87;;;7.70;;
5622;SDS011;2833;50.432;10.706;2023-06-22T07:35:54;10.67;;;8.10;;
5622;SDS011;2833;50.432;10.706;2023-06-22T07:38:19;10.47;;;7.60;;
5622;SDS011;2833;50.432;10.706;2023-06-22T07:40:44;19.53;;;7.87;;
5622;SDS011;2833;50.432;10.706;2023-06-22T07:43:10;12.00;;;7.67;;
5622;SDS011;2833;50.432;10.706;2023-06-22T07:45:35;15.40;;;7.73;;
5622;SDS011;2833;50.432;10.706;2023-06-22T07:48:00;14.60;;;7.40;;
5622;SDS011;2833;50.432;10.706;2023-06-22T07:50:26;13.90;;;7.40;;
5622;SDS011;2833;50.432;10.706;2023-06-22T07:52:51;12.07;;;7.90;;
5622;SDS011;2833;50.432;10.706;2023-06-22T07:55:17;10.63;;;8.03;;
5622;SDS011;2833;50.432;10.706;2023-06-22T07:57:42;8.80;;;6.77;;
5622;SDS011;2833;50.432;10.706;2023-06-22T08:00:08;14.00;;;7.40;;
5622;SDS011;2833;50.432;10.706;2023-06-22T08:02:41;8.57;;;7.23;;
5622;SDS011;2833;50.432;10.706;2023-06-22T08:05:06;19.73;;;8.40;;
5622;SDS011;2833;50.432;10.706;2023-06-22T08:07:33;12.57;;;8.60;;
5622;SDS011;2833;50.432;10.706;2023-06-22T08:09:58;13.10;;;8.20;;
5622;SDS011;2833;50.432;10.706;2023-06-22T08:12:23;11.30;;;6.80;;
5622;SDS011;2833;50.432;10.706;2023-06-22T08:14:48;13.30;;;7.40;;
5622;SDS011;2833;50.432;10.706;2023-06-22T08:17:14;14.93;;;6.83;;
5622;SDS011;2833;50.432;10.706;2023-06-22T08:19:39;8.20;;;6.57;;
5622;SDS011;2833;50.432;10.706;2023-06-22T08:22:05;8.90;;;6.87;;
5622;SDS011;2833;50.432;10.706;2023-06-22T08:24:30;12.87;;;6.93;;
5622;SDS011;2833;50.432;10.706;2023-06-22T08:26:55;12.13;;;6.20;;
5622;SDS011;2833;50.432;10.706;2023-06-22T08:29:21;9.87;;;6.97;;
5622;SDS011;2833;50.432;10.706;2023-06-22T08:31:46;8.33;;;7.27;;
5622;SDS011;2833;50.432;10.706;2023-06-22T08:34:11;11.87;;;7.53;;
5622;SDS011;2833;50.432;10.706;2023-06-22T08:36:37;13.37;;;8.03;;
5622;SDS011;2833;50.432;10.706;2023-06-22T08:39:06;9.23;;;7.50;;
5622;SDS011;2833;50.432;10.706;2023-06-22T08:41:31;9.07;;;7.30;;
5622;SDS011;2833;50.432;10.706;2023-06-22T08:43:56;9.93;;;7.80;;
5622;SDS011;2833;50.432;10.706;2023-06-22T08:46:22;9.60;;;6.80;;
5622;SDS011;2833;50.432;10.706;2023-06-22T08:48:54;8.93;;;7.33;;
5622;SDS011;2833;50.432;10.706;2023-06-22T08:51:20;10.10;;;7.07;;
5622;SDS011;2833;50.432;10.706;2023-06-22T08:53:45;10.30;;;7.97;;
5622;SDS011;2833;50.432;10.706;2023-06-22T08:56:10;9.03;;;7.40;;
5622;SDS011;2833;50.432;10.706;2023-06-22T08:58:35;9.53;;;7.30;;
5622;SDS011;2833;50.432;10.706;2023-06-22T09:01:00;10.27;;;7.70;;
5622;SDS011;2833;50.432;10.706;2023-06-22T09:03:26;16.83;;;7.17;;
5622;SDS011;2833;50.432;10.706;2023-06-22T09:05:52;10.67;;;7.60;;
5622;SDS011;2833;50.432;10.706;2023-06-22T09:08:17;9.53;;;7.40;;
5622;SDS011;2833;50.432;10.706;2023-06-22T09:10:42;11.27;;;7.00;;
5622;SDS011;2833;50.432;10.706;2023-06-22T09:13:07;9.93;;;7.13;;
5622;SDS011;2833;50.432;10.706;2023-06-22T09:15:32;11.63;;;6.27;;
5622;SDS011;2833;50.432;10.706;2023-06-22T09:17:59;9.43;;;6.70;;
5622;SDS011;2833;50.432;10.706;2023-06-22T09:20:24;9.33;;;7.30;;
5622;SDS011;2833;50.432;10.706;2023-06-22T09:22:49;10.07;;;6.87;;
5622;SDS011;2833;50.432;10.706;2023-06-22T09:25:14;10.87;;;7.27;;
5622;SDS011;2833;50.432;10.706;2023-06-22T09:27:39;10.33;;;7.33;;
5622;SDS011;2833;50.432;10.706;2023-06-22T09:30:05;13.20;;;7.37;;
5622;SDS011;2833;50.432;10.706;2023-06-22T09:32:30;9.20;;;6.90;;
5622;SDS011;2833;50.432;10.706;2023-06-22T09:34:55;8.20;;;6.50;;
5622;SDS011;2833;50.432;10.706;2023-06-22T09:37:21;8.13;;;6.73;;
5622;SDS011;2833;50.432;10.706;2023-06-22T09:39:46;10.67;;;6.90;;
5622;SDS011;2833;50.432;10.706;2023-06-22T09:42:11;8.80;;;6.80;;
5622;SDS011;2833;50.432;10.706;2023-06-22T09:44:38;9.00;;;6.67;;
5622;SDS011;2833;50.432;10.706;2023-06-22T09:47:03;7.77;;;6.63;;
5622;SDS011;2833;50.432;10.706;2023-06-22T09:49:28;7.37;;;6.60;;
5622;SDS011;2833;50.432;10.706;2023-06-22T09:51:54;13.00;;;7.10;;
5622;SDS011;2833;50.432;10.706;2023-06-22T09:54:19;9.50;;;7.67;;
5622;SDS011;2833;50.432;10.706;2023-06-22T09:56:44;9.50;;;6.90;;
5622;SDS011;2833;50.432;10.706;2023-06-22T09:59:09;11.67;;;5.90;;
5622;SDS011;2833;50.432;10.706;2023-06-22T10:01:34;11.57;;;7.20;;
5622;SDS011;2833;50.432;10.706;2023-06-22T10:04:00;7.10;;;5.90;;
5622;SDS011;2833;50.432;10.706;2023-06-22T10:06:25;11.37;;;8.30;;
5622;SDS011;2833;50.432;10.706;2023-06-22T10:08:50;8.10;;;7.03;;
5622;SDS011;2833;50.432;10.706;2023-06-22T10:11:16;9.20;;;6.90;;
5622;SDS011;2833;50.432;10.706;2023-06-22T10:13:41;9.53;;;7.47;;
5622;SDS011;2833;50.432;10.706;2023-06-22T10:16:06;9.00;;;6.87;;
5622;SDS011;2833;50.432;10.706;2023-06-22T10:18:32;8.70;;;6.90;;
5622;SDS011;2833;50.432;10.706;2023-06-22T10:20:57;8.80;;;6.70;;
5622;SDS011;2833;50.432;10.706;2023-06-22T10:23:22;8.83;;;6.57;;
5622;SDS011;2833;50.432;10.706;2023-06-22T10:25:47;11.70;;;7.23;;
5622;SDS011;2833;50.432;10.706;2023-06-22T10:28:13;8.90;;;6.27;;
5622;SDS011;2833;50.432;10.706;2023-06-22T10:30:41;8.07;;;7.07;;
5622;SDS011;2833;50.432;10.706;2023-06-22T10:33:07;7.90;;;6.87;;
5622;SDS011;2833;50.432;10.706;2023-06-22T10:35:32;8.70;;;6.93;;
5622;SDS011;2833;50.432;10.706;2023-06-22T10:37:57;11.00;;;6.70;;
5622;SDS011;2833;50.432;10.706;2023-06-22T10:40:22;9.57;;;6.33;;
5622;SDS011;2833;50.432;10.706;2023-06-22T10:42:48;10.37;;;7.50;;
5622;SDS011;2833;50.432;10.706;2023-06-22T10:45:15;8.70;;;6.83;;
5622;SDS011;2833;50.432;10.706;2023-06-22T10:47:40;7.80;;;6.37;;
5622;SDS011;2833;50.432;10.706;2023-06-22T10:50:07;11.60;;;6.70;;
5622;SDS011;2833;50.432;10.706;2023-06-22T10:52:32;8.83;;;7.17;;
5622;SDS011;2833;50.432;10.706;2023-06-22T10:54:57;8.13;;;6.80;;
5622;SDS011;2833;50.432;10.706;2023-06-22T10:57:23;10.30;;;6.60;;
5622;SDS011;2833;50.432;10.706;2023-06-22T10:59:48;8.40;;;6.77;;
5622;SDS011;2833;50.432;10.706;2023-06-22T11:02:13;6.20;;;5.60;;
5622;SDS011;2833;50.432;10.706;2023-06-22T11:04:38;9.53;;;7.40;;
5622;SDS011;2833;50.432;10.706;2023-06-22T11:07:04;11.67;;;7.13;;
5622;SDS011;2833;50.432;10.706;2023-06-22T11:09:29;10.80;;;6.70;;
5622;SDS011;2833;50.432;10.706;2023-06-22T11:11:55;8.77;;;6.80;;
5622;SDS011;2833;50.432;10.706;2023-06-22T11:14:21;12.23;;;7.20;;
5622;SDS011;2833;50.432;10.706;2023-06-22T11:16:46;7.70;;;6.53;;
5622;SDS011;2833;50.432;10.706;2023-06-22T11:19:12;9.63;;;6.27;;
5622;SDS011;2833;50.432;10.706;2023-06-22T11:21:37;7.87;;;6.77;;
5622;SDS011;2833;50.432;10.706;2023-06-22T11:24:02;7.07;;;6.20;;
5622;SDS011;2833;50.432;10.706;2023-06-22T11:26:28;10.97;;;6.07;;
5622;SDS011;2833;50.432;10.706;2023-06-22T11:28:53;7.43;;;5.73;;
5622;SDS011;2833;50.432;10.706;2023-06-22T11:31:18;8.87;;;5.90;;
5622;SDS011;2833;50.432;10.706;2023-06-22T11:33:44;8.10;;;6.33;;
5622;SDS011;2833;50.432;10.706;2023-06-22T11:36:10;8.07;;;6.53;;
5622;SDS011;2833;50.432;10.706;2023-06-22T11:38:36;7.80;;;6.07;;
5622;SDS011;2833;50.432;10.706;2023-06-22T11:41:03;9.70;;;7.30;;
5622;SDS011;2833;50.432;10.706;2023-06-22T11:43:29;10.43;;;6.87;;
5622;SDS011;2833;50.432;10.706;2023-06-22T11:45:54;13.20;;;8.20;;
5622;SDS011;2833;50.432;10.706;2023-06-22T11:48:21;9.93;;;6.67;;
5622;SDS011;2833;50.432;10.706;2023-06-22T11:50:46;8.50;;;7.00;;
5622;SDS011;2833;50.432;10.706;2023-06-22T11:53:11;9.00;;;6.50;;
5622;SDS011;2833;50.432;10.706;2023-06-22T11:55:37;11.90;;;7.37;;
5622;SDS011;2833;50.432;10.706;2023-06-22T11:58:02;11.50;;;6.87;;
5622;SDS011;2833;50.432;10.706;2023-06-22T12:00:29;9.37;;;7.53;;
5622;SDS011;2833;50.432;10.706;2023-06-22T12:02:54;8.40;;;6.30;;
5622;SDS011;2833;50.432;10.706;2023-06-22T12:05:20;7.70;;;6.70;;
5622;SDS011;2833;50.432;10.706;2023-06-22T12:07:49;8.87;;;6.30;;
5622;SDS011;2833;50.432;10.706;2023-06-22T12:10:16;10.00;;;7.60;;
5622;SDS011;2833;50.432;10.706;2023-06-22T12:12:41;10.37;;;7.30;;
5622;SDS011;2833;50.432;10.706;2023-06-22T12:15:07;8.87;;;7.50;;
5622;SDS011;2833;50.432;10.706;2023-06-22T12:17:34;11.40;;;8.43;;
5622;SDS011;2833;50.432;10.706;2023-06-22T12:19:59;10.83;;;7.70;;
5622;SDS011;2833;50.432;10.706;2023-06-22T12:22:24;10.53;;;7.20;;
5622;SDS011;2833;50.432;10.706;2023-06-22T12:24:49;9.43;;;7.43;;
5622;SDS011;2833;50.432;10.706;2023-06-22T12:27:15;10.00;;;7.27;;
5622;SDS011;2833;50.432;10.706;2023-06-22T12:29:43;7.20;;;5.53;;
5622;SDS011;2833;50.432;10.706;2023-06-22T12:32:08;9.90;;;7.10;;
5622;SDS011;2833;50.432;10.706;2023-06-22T12:34:33;10.70;;;7.37;;
5622;SDS011;2833;50.432;10.706;2023-06-22T12:36:58;11.03;;;8.00;;
5622;SDS011;2833;50.432;10.706;2023-06-22T12:39:24;10.03;;;6.70;;
5622;SDS011;2833;50.432;10.706;2023-06-22T12:41:49;13.00;;;6.40;;
5622;SDS011;2833;50.432;10.706;2023-06-22T12:44:14;10.27;;;7.17;;
5622;SDS011;2833;50.432;10.706;2023-06-22T12:46:39;12.50;;;7.53;;
5622;SDS011;2833;50.432;10.706;2023-06-22T12:49:05;8.20;;;6.33;;
5622;SDS011;2833;50.432;10.706;2023-06-22T12:51:30;8.57;;;6.77;;
5622;SDS011;2833;50.432;10.706;2023-06-22T12:53:55;10.00;;;7.33;;
5622;SDS011;2833;50.432;10.706;2023-06-22T12:56:20;10.13;;;6.40;;
5622;SDS011;2833;50.432;10.706;2023-06-22T12:58:46;7.10;;;5.90;;
5622;SDS011;2833;50.432;10.706;2023-06-22T13:01:11;11.17;;;7.00;;
5622;SDS011;2833;50.432;10.706;2023-06-22T13:03:36;12.00;;;6.90;;
5622;SDS011;2833;50.432;10.706;2023-06-22T13:06:01;14.50;;;6.97;;
5622;SDS011;2833;50.432;10.706;2023-06-22T13:08:28;9.90;;;7.50;;
5622;SDS011;2833;50.432;10.706;2023-06-22T13:10:53;8.10;;;5.90;;
5622;SDS011;2833;50.432;10.706;2023-06-22T13:13:18;7.80;;;5.90;;
5622;SDS011;2833;50.432;10.706;2023-06-22T13:15:44;8.20;;;6.83;;
5622;SDS011;2833;50.432;10.706;2023-06-22T13:18:09;8.43;;;7.20;;
5622;SDS011;2833;50.432;10.706;2023-06-22T13:20:34;9.87;;;6.90;;
5622;SDS011;2833;50.432;10.706;2023-06-22T13:22:59;11.97;;;6.37;;
5622;SDS011;2833;50.432;10.706;2023-06-22T13:25:25;11.93;;;6.40;;
5622;SDS011;2833;50.432;10.706;2023-06-22T13:27:51;9.50;;;6.30;;
5622;SDS011;2833;50.432;10.706;2023-06-22T13:30:17;8.80;;;6.60;;
5622;SDS011;2833;50.432;10.706;2023-06-22T13:32:42;13.30;;;6.53;;
5622;SDS011;2833;50.432;10.706;2023-06-22T13:35:08;9.33;;;6.87;;
5622;SDS011;2833;50.432;10.706;2023-06-22T13:37:34;10.23;;;6.50;;
5622;SDS011;2833;50.432;10.706;2023-06-22T13:39:59;17.33;;;6.70;;
5622;SDS011;2833;50.432;10.706;2023-06-22T13:42:24;10.23;;;6.20;;
5622;SDS011;2833;50.432;10.706;2023-06-22T13:44:50;7.90;;;6.70;;
5622;SDS011;2833;50.432;10.706;2023-06-22T13:47:15;10.50;;;6.37;;
5622;SDS011;2833;50.432;10.706;2023-06-22T13:49:40;7.37;;;6.30;;
5622;SDS011;2833;50.432;10.706;2023-06-22T13:52:05;11.83;;;6.90;;
5622;SDS011;2833;50.432;10.706;2023-06-22T13:54:35;9.53;;;7.13;;
5622;SDS011;2833;50.432;10.706;2023-06-22T13:57:00;8.73;;;6.73;;
5622;SDS011;2833;50.432;10.706;2023-06-22T13:59:25;11.57;;;7.10;;
5622;SDS011;2833;50.432;10.706;2023-06-22T14:01:52;9.63;;;6.90;;
5622;SDS011;2833;50.432;10.706;2023-06-22T14:04:18;9.03;;;7.03;;
5622;SDS011;2833;50.432;10.706;2023-06-22T14:06:43;7.90;;;6.13;;
5622;SDS011;2833;50.432;10.706;2023-06-22T14:09:08;11.33;;;6.07;;
5622;SDS011;2833;50.432;10.706;2023-06-22T14:11:34;9.50;;;6.70;;
5622;SDS011;2833;50.432;10.706;2023-06-22T14:13:59;12.63;;;6.43;;
5622;SDS011;2833;50.432;10.706;2023-06-22T14:16:24;8.33;;;6.13;;
5622;SDS011;2833;50.432;10.706;2023-06-22T14:18:49;8.73;;;6.73;;
5622;SDS011;2833;50.432;10.706;2023-06-22T14:21:15;10.13;;;6.63;;
5622;SDS011;2833;50.432;10.706;2023-06-22T14:23:40;9.07;;;6.67;;
5622;SDS011;2833;50.432;10.706;2023-06-22T14:26:05;10.97;;;6.57;;
5622;SDS011;2833;50.432;10.706;2023-06-22T14:28:30;8.90;;;6.17;;
5622;SDS011;2833;50.432;10.706;2023-06-22T14:30:56;10.77;;;6.60;;
5622;SDS011;2833;50.432;10.706;2023-06-22T14:33:21;7.40;;;6.10;;
5622;SDS011;2833;50.432;10.706;2023-06-22T14:35:46;9.60;;;6.83;;
5622;SDS011;2833;50.432;10.706;2023-06-22T14:38:12;13.97;;;6.37;;
5622;SDS011;2833;50.432;10.706;2023-06-22T14:40:37;7.83;;;5.73;;
5622;SDS011;2833;50.432;10.706;2023-06-22T14:43:02;8.27;;;6.00;;
5622;SDS011;2833;50.432;10.706;2023-06-22T14:45:28;8.30;;;6.53;;
5622;SDS011;2833;50.432;10.706;2023-06-22T14:47:53;7.97;;;5.77;;